Time;durP1;ratioP1;P1;durP2;ratioP2;P2;SDS_P1;SDS_P2;PMS_P1;PMS_P2;Temp;Humidity;BMP_temperature;BMP_pressure;BME280_temperature;BME280_humidity;BME280_pressure;Samples;Min_cycle;Max_cycle;Signal;HPM_P1;HPM_P2
2021/11/05 00:01:06;;;;;;;6.70;4.60;;;7.10;89.60;;;;;;4951258;29;20745;-76
2021/11/05 00:03:32;;;;;;;6.20;3.90;;;7.10;89.60;;;;;;4945232;29;20586;-77
2021/11/05 00:05:57;;;;;;;6.40;4.20;;;7.00;89.60;;;;;;4953822;28;20242;-77
2021/11/05 00:08:25;;;;;;;5.43;4.20;;;7.10;89.90;;;;;;4958333;29;20821;-77
2021/11/05 00:10:51;;;;;;;9.50;3.83;;;7.10;89.60;;;;;;4956125;28;20184;-80
2021/11/05 00:13:17;;;;;;;4.90;3.20;;;7.10;89.30;;;;;;4954559;28;20432;-75
2021/11/05 00:15:43;;;;;;;6.30;3.63;;;7.10;89.30;;;;;;4956576;29;20598;-75
2021/11/05 00:18:09;;;;;;;6.60;4.67;;;7.10;89.70;;;;;;4957256;28;20493;-78
2021/11/05 00:20:36;;;;;;;6.43;4.43;;;7.10;89.70;;;;;;4959168;28;20919;-77
2021/11/05 00:23:02;;;;;;;5.70;3.83;;;7.20;89.60;;;;;;4954786;29;20438;-75
2021/11/05 00:25:28;;;;;;;7.77;5.07;;;7.20;89.60;;;;;;4959080;28;20448;-78
2021/11/05 00:27:54;;;;;;;5.53;4.07;;;7.20;89.70;;;;;;4956015;29;20497;-76
2021/11/05 00:30:20;;;;;;;5.00;3.93;;;7.10;89.90;;;;;;4957235;29;20435;-77
2021/11/05 00:32:47;;;;;;;5.63;3.87;;;7.20;90.00;;;;;;4957170;28;20683;-77
2021/11/05 00:35:14;;;;;;;6.90;4.50;;;7.10;90.10;;;;;;4956169;28;20451;-76
2021/11/05 00:37:41;;;;;;;5.80;4.20;;;7.10;90.20;;;;;;4951389;29;20458;-78
2021/11/05 00:40:09;;;;;;;7.00;4.27;;;7.00;90.30;;;;;;4955331;29;20504;-78
2021/11/05 00:42:34;;;;;;;5.53;4.20;;;7.00;90.30;;;;;;4948339;29;21265;-77
2021/11/05 00:45:00;;;;;;;6.33;4.03;;;7.00;90.40;;;;;;4954116;28;20477;-77
2021/11/05 00:47:26;;;;;;;6.67;4.50;;;7.00;90.30;;;;;;4955407;28;20542;-78
2021/11/05 00:49:52;;;;;;;5.47;4.17;;;7.10;90.30;;;;;;4953541;29;20504;-77
2021/11/05 00:52:18;;;;;;;6.27;4.50;;;7.10;90.30;;;;;;4955415;28;20184;-76
2021/11/05 00:54:44;;;;;;;6.87;4.73;;;7.10;90.30;;;;;;4951288;28;20213;-75
2021/11/05 00:57:10;;;;;;;7.50;4.87;;;7.00;90.50;;;;;;4954391;29;20427;-76
2021/11/05 00:59:38;;;;;;;6.77;4.80;;;7.10;90.70;;;;;;4954608;29;20428;-76
2021/11/05 01:02:05;;;;;;;7.10;4.80;;;7.00;90.70;;;;;;4955221;29;20475;-78
2021/11/05 01:04:31;;;;;;;8.10;4.87;;;7.00;90.90;;;;;;4953419;28;20458;-78
2021/11/05 01:06:56;;;;;;;6.50;4.60;;;7.00;90.90;;;;;;4951392;29;20423;-78
2021/11/05 01:09:23;;;;;;;5.03;3.80;;;7.00;91.20;;;;;;4954473;29;20199;-78
2021/11/05 01:11:49;;;;;;;9.23;4.93;;;7.00;91.20;;;;;;4954440;28;20280;-77
2021/11/05 01:14:14;;;;;;;8.83;4.77;;;7.00;91.20;;;;;;4955976;29;20969;-76
2021/11/05 01:16:40;;;;;;;5.40;3.73;;;7.00;91.20;;;;;;4957608;28;20300;-77
2021/11/05 01:19:06;;;;;;;7.30;3.97;;;7.00;91.10;;;;;;4952884;29;20224;-76
2021/11/05 01:21:32;;;;;;;6.53;4.60;;;6.90;91.10;;;;;;4964892;29;20208;-77
2021/11/05 01:23:57;;;;;;;7.47;4.87;;;6.90;91.40;;;;;;4954198;29;20800;-78
2021/11/05 01:26:23;;;;;;;7.27;4.67;;;6.90;91.30;;;;;;4953737;28;20750;-77
2021/11/05 01:28:49;;;;;;;5.60;4.00;;;6.90;91.50;;;;;;4953596;29;20276;-79
2021/11/05 01:31:17;;;;;;;10.00;5.00;;;6.90;91.50;;;;;;4946301;29;20192;-76
2021/11/05 01:33:44;;;;;;;7.83;4.83;;;6.90;91.70;;;;;;4952226;29;20192;-78
2021/11/05 01:36:11;;;;;;;8.27;5.03;;;7.00;91.70;;;;;;4953798;28;20467;-76
2021/11/05 01:38:36;;;;;;;6.20;4.20;;;7.00;91.40;;;;;;4953152;29;20986;-77
2021/11/05 01:41:02;;;;;;;6.67;4.80;;;7.00;91.30;;;;;;4954619;29;20561;-78
2021/11/05 01:43:28;;;;;;;7.10;4.93;;;7.00;91.40;;;;;;4955816;29;20651;-76
2021/11/05 01:45:54;;;;;;;7.07;4.90;;;7.00;91.70;;;;;;4956267;28;20443;-76
2021/11/05 01:48:20;;;;;;;7.03;4.30;;;7.00;92.00;;;;;;4954258;29;20238;-76
2021/11/05 01:50:46;;;;;;;8.40;4.90;;;7.00;92.10;;;;;;4954022;29;20838;-75
2021/11/05 01:53:13;;;;;;;8.93;5.00;;;6.90;92.10;;;;;;4955301;29;20442;-75
2021/11/05 01:55:41;;;;;;;7.10;4.40;;;6.90;92.40;;;;;;4949854;29;20459;-76
2021/11/05 01:58:07;;;;;;;12.50;4.97;;;6.90;92.60;;;;;;4951626;29;20431;-76
2021/11/05 02:00:33;;;;;;;6.70;4.73;;;6.80;92.90;;;;;;4955727;29;20471;-74
2021/11/05 02:03:00;;;;;;;9.63;5.17;;;6.70;93.30;;;;;;4953984;29;20210;-74
2021/11/05 02:05:26;;;;;;;7.33;4.97;;;6.70;93.70;;;;;;4951053;28;20454;-77
2021/11/05 02:07:54;;;;;;;11.87;5.20;;;6.60;94.00;;;;;;4951738;28;20518;-75
2021/11/05 02:10:22;;;;;;;6.57;4.70;;;6.50;94.40;;;;;;4951401;28;20984;-76
2021/11/05 02:12:48;;;;;;;8.17;5.10;;;6.40;94.50;;;;;;4953209;28;20542;-77
2021/11/05 02:15:15;;;;;;;8.63;5.30;;;6.40;94.90;;;;;;4946774;29;20444;-77
2021/11/05 02:17:42;;;;;;;8.10;5.17;;;6.40;95.10;;;;;;4955829;29;20458;-75
2021/11/05 02:20:10;;;;;;;7.80;4.60;;;6.40;95.40;;;;;;4951744;29;20416;-77
2021/11/05 02:22:36;;;;;;;5.70;4.47;;;6.40;95.50;;;;;;4953053;29;20427;-79
2021/11/05 02:25:02;;;;;;;9.70;4.70;;;6.30;95.50;;;;;;4951149;28;20451;-77
2021/11/05 02:27:32;;;;;;;7.20;4.13;;;6.40;95.60;;;;;;4953612;29;20706;-77
2021/11/05 02:30:03;;;;;;;7.37;4.60;;;6.40;95.70;;;;;;4955219;28;20431;-79
2021/11/05 02:32:28;;;;;;;9.47;4.87;;;6.40;95.50;;;;;;4953510;28;21042;-78
2021/11/05 02:34:54;;;;;;;9.60;4.23;;;6.50;95.60;;;;;;4952776;28;20641;-79
2021/11/05 02:37:23;;;;;;;7.13;3.90;;;6.50;95.20;;;;;;4955172;28;20727;-78
2021/11/05 02:39:50;;;;;;;6.83;4.47;;;6.50;95.20;;;;;;4957418;28;20434;-77
2021/11/05 02:42:15;;;;;;;6.23;4.23;;;6.50;95.20;;;;;;4951318;29;20468;-77
2021/11/05 02:44:41;;;;;;;7.50;4.23;;;6.60;95.10;;;;;;4952826;28;20435;-76
2021/11/05 02:47:33;;;;;;;5.83;3.90;;;6.60;94.70;;;;;;4953613;29;20234;-78
2021/11/05 02:50:03;;;;;;;5.53;3.87;;;6.60;94.30;;;;;;4955017;28;20432;-76
2021/11/05 02:52:29;;;;;;;6.37;4.40;;;6.60;94.20;;;;;;4941485;29;20434;-75
2021/11/05 02:54:55;;;;;;;4.97;3.87;;;6.60;94.20;;;;;;4956023;28;20455;-76
2021/11/05 02:57:21;;;;;;;5.83;3.93;;;6.70;94.30;;;;;;4961214;29;20279;-75
2021/11/05 02:59:47;;;;;;;7.10;4.87;;;6.80;94.10;;;;;;4955600;29;20268;-76
2021/11/05 03:02:13;;;;;;;4.60;3.43;;;6.80;93.90;;;;;;4959769;29;20479;-76
2021/11/05 03:04:39;;;;;;;7.80;4.90;;;6.80;94.00;;;;;;4961100;29;20483;-76
2021/11/05 03:07:08;;;;;;;7.07;4.40;;;6.80;94.00;;;;;;4956286;28;21321;-77
2021/11/05 03:09:36;;;;;;;5.30;4.20;;;6.70;93.80;;;;;;4951238;28;20431;-76
2021/11/05 03:12:03;;;;;;;5.33;4.20;;;6.80;94.10;;;;;;4952517;28;20463;-76
2021/11/05 03:14:29;;;;;;;6.60;4.63;;;6.90;94.20;;;;;;4951054;28;20431;-77
2021/11/05 03:16:57;;;;;;;4.83;3.73;;;7.10;94.00;;;;;;4952231;29;20947;-75
2021/11/05 03:19:22;;;;;;;6.80;4.30;;;7.10;93.70;;;;;;4946224;29;20428;-75
2021/11/05 03:21:48;;;;;;;4.90;4.10;;;7.10;93.60;;;;;;4951343;29;20490;-76
2021/11/05 03:24:14;;;;;;;5.40;4.00;;;7.10;93.60;;;;;;4955208;29;20275;-77
2021/11/05 03:26:40;;;;;;;7.00;4.80;;;7.10;93.60;;;;;;4956835;28;20546;-76
2021/11/05 03:29:06;;;;;;;5.20;3.83;;;7.10;93.60;;;;;;4955378;29;20191;-77
2021/11/05 03:31:33;;;;;;;6.70;4.00;;;7.10;93.50;;;;;;4956872;29;20935;-76
2021/11/05 03:34:00;;;;;;;6.53;4.43;;;7.00;93.50;;;;;;4957143;29;20195;-75
2021/11/05 03:36:25;;;;;;;6.00;3.90;;;7.00;93.60;;;;;;4962004;28;21016;-74
2021/11/05 03:38:52;;;;;;;5.03;3.60;;;7.00;93.80;;;;;;4961570;29;20522;-75
2021/11/05 03:41:18;;;;;;;5.47;3.90;;;7.10;93.90;;;;;;4961314;28;20216;-75
2021/11/05 03:43:44;;;;;;;5.93;4.13;;;7.20;93.70;;;;;;4957370;29;20489;-76
2021/11/05 03:46:10;;;;;;;5.70;3.73;;;7.10;93.40;;;;;;4953658;28;20463;-77
2021/11/05 03:48:38;;;;;;;6.60;4.50;;;7.10;93.50;;;;;;4953053;28;20663;-77
2021/11/05 03:51:04;;;;;;;6.03;4.43;;;7.10;93.30;;;;;;4954884;29;20188;-76
2021/11/05 03:53:30;;;;;;;5.00;3.73;;;7.10;93.50;;;;;;4952270;29;20431;-75
2021/11/05 03:55:56;;;;;;;4.70;3.50;;;7.20;93.40;;;;;;4958754;29;20808;-76
2021/11/05 03:58:22;;;;;;;5.73;3.90;;;7.00;93.00;;;;;;4949891;28;20242;-76
2021/11/05 04:00:47;;;;;;;5.13;3.40;;;6.90;93.20;;;;;;4958254;29;20506;-76
2021/11/05 04:03:13;;;;;;;8.20;3.73;;;6.90;93.30;;;;;;4960869;29;20188;-75
2021/11/05 04:05:39;;;;;;;5.23;3.30;;;6.90;93.40;;;;;;4961591;28;20211;-76
2021/11/05 04:08:05;;;;;;;4.70;3.33;;;6.90;93.50;;;;;;4952331;29;20444;-76
2021/11/05 04:10:31;;;;;;;4.67;3.60;;;7.00;93.60;;;;;;4956277;29;20801;-76
2021/11/05 04:12:58;;;;;;;4.37;3.30;;;7.10;93.40;;;;;;4952012;29;20439;-75
2021/11/05 04:15:24;;;;;;;6.80;3.70;;;7.10;93.40;;;;;;4954000;28;20469;-75
2021/11/05 04:17:50;;;;;;;4.37;3.40;;;7.20;93.40;;;;;;4957186;29;20529;-75
2021/11/05 04:20:16;;;;;;;3.80;3.30;;;7.20;93.40;;;;;;4959392;28;20437;-75
2021/11/05 04:22:42;;;;;;;5.97;3.80;;;7.20;93.20;;;;;;4955033;29;20950;-75
2021/11/05 04:25:08;;;;;;;5.50;3.70;;;7.20;93.30;;;;;;4955313;28;20714;-76
2021/11/05 04:27:34;;;;;;;4.93;3.20;;;7.20;93.20;;;;;;4950479;29;20423;-76
2021/11/05 04:30:00;;;;;;;3.60;3.17;;;7.30;93.20;;;;;;4956505;28;20435;-75
2021/11/05 04:32:26;;;;;;;4.90;3.10;;;7.30;92.90;;;;;;4954594;29;20428;-76
2021/11/05 04:34:52;;;;;;;5.40;3.40;;;7.40;92.80;;;;;;4956191;28;20605;-76
2021/11/05 04:37:18;;;;;;;7.33;2.87;;;7.30;92.80;;;;;;4957282;29;20203;-77
2021/11/05 04:39:43;;;;;;;4.90;3.30;;;7.30;92.80;;;;;;4957877;29;20435;-75
2021/11/05 04:42:09;;;;;;;4.10;3.27;;;7.40;92.70;;;;;;4953690;28;20255;-76
2021/11/05 04:44:35;;;;;;;5.50;3.03;;;7.40;92.70;;;;;;4955914;28;20192;-76
2021/11/05 04:47:01;;;;;;;3.93;3.20;;;7.50;92.80;;;;;;4956842;29;20184;-76
2021/11/05 04:49:26;;;;;;;5.77;3.13;;;7.40;92.50;;;;;;4952186;28;20211;-76
2021/11/05 04:51:52;;;;;;;3.73;2.80;;;7.30;92.40;;;;;;4960111;28;20604;-75
2021/11/05 04:54:27;;;;;;;4.23;2.90;;;7.40;92.60;;;;;;4957756;28;20614;-76
2021/11/05 04:56:53;;;;;;;4.00;2.83;;;7.40;92.40;;;;;;4952242;28;20434;-77
2021/11/05 04:59:19;;;;;;;4.80;3.20;;;7.30;92.10;;;;;;4956743;29;20799;-77
2021/11/05 05:01:46;;;;;;;3.70;3.17;;;7.20;92.00;;;;;;4948972;29;20299;-78
2021/11/05 05:04:11;;;;;;;2.90;2.57;;;7.10;92.20;;;;;;4953161;29;20442;-76
2021/11/05 05:06:37;;;;;;;5.53;3.50;;;7.10;92.40;;;;;;4955059;28;20443;-76
2021/11/05 05:09:04;;;;;;;4.13;2.67;;;7.20;92.60;;;;;;4954965;29;20188;-76
2021/11/05 05:11:30;;;;;;;4.23;3.13;;;7.30;92.50;;;;;;4952524;29;20534;-76
2021/11/05 05:13:56;;;;;;;4.23;2.97;;;7.20;92.30;;;;;;4954069;28;20442;-77
2021/11/05 05:16:22;;;;;;;4.37;3.47;;;7.10;92.60;;;;;;4954228;28;20451;-76
2021/11/05 05:18:47;;;;;;;4.90;3.47;;;7.00;93.00;;;;;;4953582;29;20771;-76
2021/11/05 05:21:13;;;;;;;4.50;2.90;;;6.90;93.40;;;;;;4954277;28;20529;-78
2021/11/05 05:23:39;;;;;;;3.67;2.77;;;6.90;93.60;;;;;;4953534;28;20384;-78
2021/11/05 05:26:05;;;;;;;4.37;3.30;;;6.80;93.80;;;;;;4954213;28;20211;-75
2021/11/05 05:28:32;;;;;;;4.67;2.97;;;6.80;93.80;;;;;;4954643;29;20419;-78
2021/11/05 05:31:07;;;;;;;4.77;3.37;;;6.80;94.00;;;;;;4950506;29;20424;-77
2021/11/05 05:33:36;;;;;;;3.97;3.10;;;6.90;94.20;;;;;;4949159;29;20426;-75
2021/11/05 05:36:04;;;;;;;4.13;3.03;;;6.80;94.20;;;;;;4951046;28;20476;-77
2021/11/05 05:38:30;;;;;;;3.43;2.30;;;6.80;94.10;;;;;;4949252;29;20518;-75
2021/11/05 05:40:56;;;;;;;5.80;3.60;;;6.90;94.00;;;;;;4953607;28;20475;-75
2021/11/05 05:43:21;;;;;;;4.30;3.23;;;6.90;94.10;;;;;;4954009;29;21077;-76
2021/11/05 05:45:47;;;;;;;4.40;3.20;;;6.90;93.90;;;;;;4954429;28;20467;-76
2021/11/05 05:48:13;;;;;;;6.40;3.60;;;7.10;93.90;;;;;;4954477;29;20275;-75
2021/11/05 05:50:39;;;;;;;4.00;2.77;;;7.10;93.80;;;;;;4954771;28;20678;-77
2021/11/05 05:53:05;;;;;;;4.67;2.90;;;7.10;93.70;;;;;;4954689;29;21007;-76
2021/11/05 05:55:30;;;;;;;3.73;2.83;;;7.20;93.80;;;;;;4950675;28;20218;-76
2021/11/05 05:57:56;;;;;;;4.30;2.77;;;7.20;93.70;;;;;;4949966;28;20199;-76
2021/11/05 06:00:22;;;;;;;6.17;3.40;;;7.30;93.30;;;;;;4955344;28;20423;-76
2021/11/05 06:02:48;;;;;;;3.90;3.00;;;7.20;93.00;;;;;;4956930;29;20195;-78
2021/11/05 06:05:14;;;;;;;4.80;3.20;;;7.20;93.30;;;;;;4959911;28;20682;-77
2021/11/05 06:07:40;;;;;;;5.10;3.30;;;7.20;93.20;;;;;;4958404;28;20191;-78
2021/11/05 06:10:07;;;;;;;4.40;3.27;;;7.20;93.20;;;;;;4956085;28;20419;-78
2021/11/05 06:12:33;;;;;;;5.50;3.70;;;7.30;93.20;;;;;;4961000;29;20554;-78
2021/11/05 06:14:59;;;;;;;6.23;3.63;;;7.30;93.10;;;;;;4964928;28;20450;-77
2021/11/05 06:17:25;;;;;;;6.20;3.27;;;7.30;92.90;;;;;;4954434;28;20450;-77
2021/11/05 06:19:51;;;;;;;4.93;3.10;;;7.40;93.00;;;;;;4948898;29;20424;-76
2021/11/05 06:22:18;;;;;;;5.83;3.60;;;7.40;93.00;;;;;;4953057;29;20266;-78
2021/11/05 06:24:44;;;;;;;5.73;4.00;;;7.30;93.00;;;;;;4952007;28;20538;-76
2021/11/05 06:27:11;;;;;;;5.57;3.80;;;7.20;93.20;;;;;;4954342;29;20466;-78
2021/11/05 06:29:37;;;;;;;6.80;3.60;;;7.10;93.30;;;;;;4953443;29;20434;-78
2021/11/05 06:32:03;;;;;;;4.57;3.70;;;7.10;93.50;;;;;;4953678;29;20451;-75
2021/11/05 06:34:29;;;;;;;6.60;4.17;;;7.10;93.60;;;;;;4951995;28;20443;-77
2021/11/05 06:36:55;;;;;;;7.30;4.13;;;7.20;93.60;;;;;;4952092;29;20919;-77
2021/11/05 06:39:20;;;;;;;5.63;3.77;;;7.30;93.60;;;;;;4953057;28;20620;-76
2021/11/05 06:41:46;;;;;;;5.23;3.30;;;7.30;93.40;;;;;;4952102;29;20471;-76
2021/11/05 06:44:12;;;;;;;6.30;3.87;;;7.40;93.50;;;;;;4950512;29;20196;-77
2021/11/05 06:46:38;;;;;;;4.97;3.47;;;7.50;93.50;;;;;;4953290;28;20221;-76
2021/11/05 06:49:03;;;;;;;6.23;4.27;;;7.60;93.10;;;;;;4953053;28;20190;-76
2021/11/05 06:51:29;;;;;;;7.10;3.87;;;7.60;92.50;;;;;;4952342;28;20426;-76
2021/11/05 06:53:56;;;;;;;6.30;4.23;;;7.60;92.30;;;;;;4950841;28;20198;-77
2021/11/05 06:56:21;;;;;;;7.23;4.53;;;7.60;92.50;;;;;;4951690;28;20455;-77
2021/11/05 06:58:49;;;;;;;6.17;4.17;;;7.50;92.60;;;;;;4946036;29;20428;-77
2021/11/05 07:01:15;;;;;;;8.03;4.70;;;7.40;93.00;;;;;;4946879;28;20294;-77
2021/11/05 07:03:41;;;;;;;7.27;4.07;;;7.30;93.50;;;;;;4949715;29;20582;-77
2021/11/05 07:06:07;;;;;;;7.27;4.33;;;7.10;93.90;;;;;;4947009;29;20208;-75
2021/11/05 07:08:33;;;;;;;9.07;4.07;;;7.00;94.20;;;;;;4953424;29;20180;-77
2021/11/05 07:11:00;;;;;;;6.80;3.90;;;7.00;94.50;;;;;;4951068;29;20534;-77
2021/11/05 07:13:26;;;;;;;6.93;4.27;;;7.10;94.80;;;;;;4952627;29;20195;-76
2021/11/05 07:15:52;;;;;;;6.33;4.17;;;7.10;94.70;;;;;;4951906;28;20443;-78
2021/11/05 07:18:18;;;;;;;5.13;3.80;;;7.20;94.90;;;;;;4953951;29;20447;-77
2021/11/05 07:20:45;;;;;;;6.40;4.33;;;7.30;94.80;;;;;;4955925;28;20970;-77
2021/11/05 07:23:12;;;;;;;6.13;3.50;;;7.40;94.80;;;;;;4959057;28;21046;-77
2021/11/05 07:25:39;;;;;;;5.23;3.70;;;7.50;94.70;;;;;;4973303;28;20503;-76
2021/11/05 07:28:05;;;;;;;5.23;3.87;;;7.50;94.50;;;;;;4973757;28;20444;-76
2021/11/05 07:30:31;;;;;;;6.47;3.57;;;7.50;94.20;;;;;;4972118;29;20510;-78
2021/11/05 07:32:57;;;;;;;8.40;4.67;;;7.60;94.20;;;;;;4965366;28;20430;-77
2021/11/05 07:35:25;;;;;;;6.03;4.00;;;7.60;94.00;;;;;;4954375;28;20479;-78
2021/11/05 07:37:51;;;;;;;5.73;3.90;;;7.70;93.80;;;;;;4963283;29;20531;-76
2021/11/05 07:40:18;;;;;;;7.83;4.43;;;7.70;93.60;;;;;;4971495;28;20436;-78
2021/11/05 07:42:45;;;;;;;7.07;4.53;;;7.70;93.50;;;;;;4965555;28;20434;-77
2021/11/05 07:45:12;;;;;;;6.70;4.33;;;7.70;93.40;;;;;;4957038;28;20457;-79
2021/11/05 07:47:42;;;;;;;6.43;4.30;;;7.60;93.10;;;;;;4952142;28;20534;-79
2021/11/05 07:50:09;;;;;;;10.63;5.03;;;7.50;93.00;;;;;;4953603;28;20436;-77
2021/11/05 07:52:35;;;;;;;7.07;4.30;;;7.50;93.20;;;;;;4954025;28;20420;-76
2021/11/05 07:55:01;;;;;;;7.10;4.43;;;7.60;93.20;;;;;;4956615;28;20435;-77
2021/11/05 07:57:27;;;;;;;7.17;4.60;;;7.70;93.20;;;;;;4951430;28;20423;-78
2021/11/05 07:59:54;;;;;;;8.10;4.10;;;7.80;93.20;;;;;;4958071;28;20177;-78
2021/11/05 08:02:20;;;;;;;7.27;4.20;;;7.80;93.20;;;;;;4957085;29;20562;-78
2021/11/05 08:04:46;;;;;;;6.60;4.17;;;7.90;93.40;;;;;;4949022;28;20493;-76
2021/11/05 08:07:12;;;;;;;9.00;4.30;;;7.90;93.20;;;;;;4958615;29;20224;-78
2021/11/05 08:09:37;;;;;;;5.13;3.20;;;7.90;93.00;;;;;;4960034;28;20198;-76
2021/11/05 08:12:03;;;;;;;10.23;3.53;;;7.90;93.10;;;;;;4958435;29;20540;-78
2021/11/05 08:14:29;;;;;;;7.23;3.50;;;7.90;93.20;;;;;;4961085;28;20195;-78
2021/11/05 08:16:55;;;;;;;4.80;3.53;;;7.90;93.00;;;;;;4960858;29;20497;-77
2021/11/05 08:19:21;;;;;;;6.07;3.67;;;7.90;93.00;;;;;;4955500;29;20522;-78
2021/11/05 08:21:47;;;;;;;6.43;4.00;;;8.00;92.80;;;;;;4955395;29;20478;-77
2021/11/05 08:24:13;;;;;;;6.80;4.23;;;8.00;92.60;;;;;;4947166;29;20193;-77
2021/11/05 08:26:38;;;;;;;6.13;3.53;;;8.00;92.50;;;;;;4953342;28;20479;-78
2021/11/05 08:29:06;;;;;;;6.70;4.10;;;8.00;92.50;;;;;;4957129;29;20425;-74
2021/11/05 08:31:33;;;;;;;4.20;3.30;;;8.00;92.20;;;;;;4950911;29;20270;-76
2021/11/05 08:33:59;;;;;;;4.90;3.20;;;8.10;92.10;;;;;;4955784;29;20590;-76
2021/11/05 08:36:26;;;;;;;4.70;3.60;;;8.20;91.70;;;;;;4952104;28;20486;-78
2021/11/05 08:38:53;;;;;;;8.07;3.63;;;8.40;91.70;;;;;;4958629;29;20811;-75
2021/11/05 08:41:20;;;;;;;4.73;3.33;;;8.60;90.50;;;;;;4958775;28;20467;-76
2021/11/05 08:43:50;;;;;;;7.47;4.33;;;8.70;90.00;;;;;;4954646;29;20428;-76
2021/11/05 08:46:16;;;;;;;4.63;2.60;;;8.70;90.00;;;;;;4960579;28;20436;-76
2021/11/05 08:48:44;;;;;;;4.40;2.87;;;8.70;89.50;;;;;;4960346;28;20487;-77
2021/11/05 08:51:11;;;;;;;2.57;2.17;;;8.70;89.20;;;;;;4959749;28;20479;-76
2021/11/05 08:53:37;;;;;;;3.07;2.03;;;8.50;89.00;;;;;;4955684;28;20434;-78
2021/11/05 08:56:04;;;;;;;4.03;2.70;;;8.50;89.50;;;;;;4952833;28;20451;-75
2021/11/05 08:58:30;;;;;;;3.33;2.60;;;8.50;89.50;;;;;;4952134;28;20808;-77
2021/11/05 09:00:56;;;;;;;6.20;3.07;;;8.50;89.90;;;;;;4953352;29;20558;-77
2021/11/05 09:03:22;;;;;;;4.53;2.50;;;8.60;89.90;;;;;;4956373;29;20423;-79
2021/11/05 09:05:48;;;;;;;4.53;2.63;;;8.70;90.10;;;;;;4955511;29;20453;-78
2021/11/05 09:08:14;;;;;;;3.20;2.70;;;8.90;89.50;;;;;;4953095;29;20544;-76
2021/11/05 09:10:40;;;;;;;3.27;2.60;;;9.00;88.40;;;;;;4951535;29;20191;-76
2021/11/05 09:13:08;;;;;;;4.43;2.20;;;9.00;88.10;;;;;;4951741;29;20467;-76
2021/11/05 09:15:34;;;;;;;2.90;2.03;;;9.00;88.10;;;;;;4956968;28;20455;-76
2021/11/05 09:18:02;;;;;;;5.03;2.47;;;9.00;87.80;;;;;;4956550;28;20455;-75
2021/11/05 09:20:30;;;;;;;2.33;2.00;;;9.10;88.60;;;;;;4956504;28;20436;-78
2021/11/05 09:22:56;;;;;;;2.53;2.07;;;9.10;88.40;;;;;;4954695;29;20751;-76
2021/11/05 09:25:22;;;;;;;2.53;2.07;;;9.30;87.70;;;;;;4957076;28;20475;-76
2021/11/05 09:27:48;;;;;;;4.23;2.20;;;9.10;86.30;;;;;;4951669;28;20431;-76
2021/11/05 09:30:15;;;;;;;4.30;2.30;;;9.10;87.60;;;;;;4947944;28;20846;-76
2021/11/05 09:32:41;;;;;;;3.20;2.00;;;9.10;86.90;;;;;;4955026;29;20250;-77
2021/11/05 09:35:08;;;;;;;2.53;2.13;;;9.30;87.30;;;;;;4953697;28;20459;-77
2021/11/05 09:37:35;;;;;;;2.90;2.10;;;9.30;87.10;;;;;;4949884;29;20443;-76
2021/11/05 09:40:02;;;;;;;5.57;3.20;;;9.30;87.10;;;;;;4954934;29;20443;-76
2021/11/05 09:42:30;;;;;;;4.13;2.47;;;9.40;87.10;;;;;;4955180;29;20502;-76
2021/11/05 09:44:57;;;;;;;3.27;2.37;;;9.30;86.90;;;;;;4960026;28;20470;-78
2021/11/05 09:47:23;;;;;;;3.93;2.70;;;9.20;87.30;;;;;;4955271;28;20578;-78
2021/11/05 09:49:48;;;;;;;4.33;2.80;;;9.20;87.70;;;;;;4949420;28;20476;-78
2021/11/05 09:52:16;;;;;;;4.83;2.50;;;9.00;87.30;;;;;;4944509;29;20663;-77
2021/11/05 09:54:46;;;;;;;3.77;3.13;;;9.00;88.00;;;;;;4949484;28;20326;-78
2021/11/05 09:57:12;;;;;;;3.70;2.83;;;9.10;88.40;;;;;;4953338;28;20503;-78
2021/11/05 09:59:38;;;;;;;5.90;3.30;;;9.20;88.60;;;;;;4955427;29;20975;-77
2021/11/05 10:02:04;;;;;;;5.47;3.83;;;9.30;88.40;;;;;;4954129;29;20211;-76
2021/11/05 10:04:32;;;;;;;7.00;3.63;;;9.40;88.00;;;;;;4948799;28;20981;-79
2021/11/05 10:07:08;;;;;;;5.73;4.40;;;9.50;88.00;;;;;;4945724;29;20428;-77
2021/11/05 10:09:50;;;;;;;5.50;3.57;;;9.50;87.60;;;;;;4948447;29;20427;-77
2021/11/05 10:12:25;;;;;;;5.77;3.97;;;9.60;87.40;;;;;;4953899;29;20423;-76
2021/11/05 10:15:03;;;;;;;4.80;3.30;;;9.60;86.90;;;;;;4952300;28;20519;-77
2021/11/05 10:17:32;;;;;;;6.43;3.33;;;9.70;86.50;;;;;;4941066;29;21188;-77
2021/11/05 10:20:05;;;;;;;5.00;3.53;;;9.60;86.50;;;;;;4951980;29;20934;-76
2021/11/05 10:22:59;;;;;;;5.07;3.60;;;9.80;86.50;;;;;;4940929;29;20471;-78
2021/11/05 10:25:37;;;;;;;5.33;4.30;;;9.90;85.90;;;;;;4951080;28;20922;-79
2021/11/05 10:28:05;;;;;;;6.97;3.70;;;9.70;85.50;;;;;;4950093;28;20914;-79
2021/11/05 10:30:33;;;;;;;7.13;4.10;;;9.70;86.90;;;;;;4950490;29;20423;-79
2021/11/05 10:33:01;;;;;;;5.63;4.03;;;9.90;86.90;;;;;;4953256;29;20458;-77
2021/11/05 10:35:28;;;;;;;7.50;4.53;;;10.10;86.50;;;;;;4948501;28;20482;-76
2021/11/05 10:37:56;;;;;;;5.93;4.00;;;10.30;84.40;;;;;;4947484;29;20423;-77
2021/11/05 10:40:23;;;;;;;6.27;4.47;;;10.30;83.10;;;;;;4949524;29;20822;-77
2021/11/05 10:42:49;;;;;;;7.47;4.60;;;10.40;83.00;;;;;;4953319;28;20520;-78
2021/11/05 10:45:17;;;;;;;5.93;4.50;;;10.50;83.10;;;;;;4953130;28;20435;-77
2021/11/05 10:47:52;;;;;;;7.10;4.30;;;10.60;83.80;;;;;;4952644;28;20427;-79
2021/11/05 10:50:20;;;;;;;6.47;4.43;;;10.70;83.30;;;;;;4952786;29;20519;-78
2021/11/05 10:53:09;;;;;;;11.13;6.97;;;10.70;82.80;;;;;;4953626;28;20423;-75
2021/11/05 10:55:47;;;;;;;12.10;6.37;;;10.60;81.80;;;;;;4952168;28;21365;-76
2021/11/05 10:58:20;;;;;;;7.80;4.87;;;10.50;81.80;;;;;;4956447;29;20427;-78
2021/11/05 11:00:47;;;;;;;8.27;4.67;;;10.40;82.20;;;;;;4950785;29;20471;-78
2021/11/05 11:03:26;;;;;;;6.47;4.43;;;10.30;82.70;;;;;;4957362;29;20431;-77
2021/11/05 11:05:53;;;;;;;8.47;5.37;;;10.20;83.30;;;;;;4952967;28;20443;-77
2021/11/05 11:08:28;;;;;;;5.53;4.10;;;10.20;83.60;;;;;;4953628;28;20433;-78
2021/11/05 11:10:57;;;;;;;6.80;4.40;;;10.10;83.60;;;;;;4954288;29;20522;-78
2021/11/05 11:13:39;;;;;;;8.60;5.60;;;10.00;84.30;;;;;;4942634;29;20455;-77
2021/11/05 11:16:08;;;;;;;9.87;5.87;;;10.10;85.50;;;;;;4957924;28;20526;-78
2021/11/05 11:18:47;;;;;;;9.90;5.73;;;10.10;85.60;;;;;;4964386;29;20459;-76
2021/11/05 11:21:12;;;;;;;11.77;6.33;;;9.90;85.70;;;;;;4959105;28;20518;-76
2021/11/05 11:23:39;;;;;;;12.57;6.03;;;9.80;85.90;;;;;;4954836;29;20797;-79
2021/11/05 11:26:06;;;;;;;12.53;6.67;;;9.60;86.80;;;;;;4955862;28;21275;-78
2021/11/05 11:28:32;;;;;;;8.50;5.63;;;9.60;87.40;;;;;;4954093;28;20466;-79
2021/11/05 11:30:58;;;;;;;9.57;5.87;;;9.60;87.80;;;;;;4953791;29;20450;-78
2021/11/05 11:33:24;;;;;;;9.37;5.27;;;9.60;86.80;;;;;;4952976;28;20499;-76
2021/11/05 11:35:50;;;;;;;9.27;5.33;;;9.70;85.90;;;;;;4949405;28;20455;-78
2021/11/05 11:38:17;;;;;;;9.50;5.43;;;9.70;84.70;;;;;;4943564;29;20751;-77
2021/11/05 11:40:47;;;;;;;10.23;5.70;;;9.80;84.60;;;;;;4957124;28;20822;-76
2021/11/05 11:43:14;;;;;;;8.63;5.47;;;9.90;83.60;;;;;;4959875;28;20423;-80
2021/11/05 11:45:49;;;;;;;9.20;5.97;;;9.80;84.10;;;;;;4957309;28;20456;-78
2021/11/05 11:48:38;;;;;;;9.97;5.87;;;9.90;85.00;;;;;;4962572;29;20946;-76
2021/11/05 11:51:26;;;;;;;13.77;6.90;;;10.10;83.80;;;;;;4947849;29;20464;-77
2021/11/05 11:53:55;;;;;;;8.90;4.97;;;10.10;83.80;;;;;;4954677;29;20447;-78
2021/11/05 11:56:26;;;;;;;10.87;6.50;;;10.20;84.00;;;;;;4949269;28;20452;-77
2021/11/05 11:58:54;;;;;;;9.57;6.23;;;10.30;83.40;;;;;;4954144;29;20502;-77
2021/11/05 12:01:24;;;;;;;11.10;5.93;;;10.20;82.40;;;;;;4957074;28;20471;-79
2021/11/05 12:04:03;;;;;;;10.27;6.00;;;10.20;83.60;;;;;;4951768;28;20434;-79
2021/11/05 12:06:53;;;;;;;8.03;5.33;;;10.30;83.10;;;;;;4956689;28;20450;-77
2021/11/05 12:09:23;;;;;;;7.30;4.63;;;10.30;81.20;;;;;;4953714;29;20427;-82
2021/11/05 12:11:49;;;;;;;6.33;4.37;;;10.40;79.90;;;;;;4956124;29;20419;-78
2021/11/05 12:14:16;;;;;;;9.60;4.73;;;10.30;78.40;;;;;;4955652;28;20431;-75
2021/11/05 12:17:00;;;;;;;6.73;4.87;;;10.30;79.20;;;;;;4953850;28;20589;-78
2021/11/05 12:19:37;;;;;;;6.13;4.33;;;10.50;79.50;;;;;;4958198;29;20801;-77
2021/11/05 12:22:11;;;;;;;7.57;4.60;;;10.60;79.70;;;;;;4953943;28;20474;-76
2021/11/05 12:24:38;;;;;;;7.60;4.80;;;10.70;78.00;;;;;;4962568;28;20459;-76
2021/11/05 12:27:25;;;;;;;9.00;5.97;;;10.70;77.00;;;;;;4959489;28;20446;-77
2021/11/05 12:29:53;;;;;;;10.23;5.00;;;10.60;77.60;;;;;;4957843;28;20425;-76
2021/11/05 12:32:19;;;;;;;7.63;5.33;;;10.60;77.70;;;;;;4963174;29;20436;-77
2021/11/05 12:34:54;;;;;;;11.43;6.23;;;10.60;78.90;;;;;;4955810;28;20965;-75
2021/11/05 12:37:31;;;;;;;13.80;7.30;;;10.60;79.20;;;;;;4954237;28;20753;-77
2021/11/05 12:40:22;;;;;;;10.30;5.90;;;10.50;79.60;;;;;;4953380;29;20486;-75
2021/11/05 12:42:54;;;;;;;12.57;7.70;;;10.50;78.90;;;;;;4957682;28;20467;-77
2021/11/05 12:45:22;;;;;;;8.57;5.60;;;10.60;79.20;;;;;;4956288;28;20983;-78
2021/11/05 12:47:54;;;;;;;11.07;6.43;;;10.80;78.30;;;;;;4955394;28;20487;-78
2021/11/05 12:50:34;;;;;;;10.77;5.90;;;10.80;76.50;;;;;;4953519;28;20428;-76
2021/11/05 12:53:07;;;;;;;8.07;5.50;;;11.00;75.80;;;;;;4953468;29;20819;-78
2021/11/05 12:55:38;;;;;;;9.03;5.47;;;10.90;73.70;;;;;;4954880;28;20440;-77
2021/11/05 12:58:07;;;;;;;10.10;6.27;;;10.90;74.00;;;;;;4955669;28;20428;-75